sensor_id;sensor_type;location;lat;lon;timestamp;P1;durP1;ratioP1;P2;durP2;ratioP2
12703;SDS011;6416;52.182;7.650;2023-09-12T00:00:45;12.65;;;11.32;;
12703;SDS011;6416;52.182;7.650;2023-09-12T00:03:11;13.27;;;12.07;;
12703;SDS011;6416;52.182;7.650;2023-09-12T00:05:36;12.52;;;11.35;;
12703;SDS011;6416;52.182;7.650;2023-09-12T00:08:02;12.15;;;11.05;;
12703;SDS011;6416;52.182;7.650;2023-09-12T00:10:27;13.02;;;11.82;;
12703;SDS011;6416;52.182;7.650;2023-09-12T00:12:53;13.18;;;11.88;;
12703;SDS011;6416;52.182;7.650;2023-09-12T00:15:19;13.25;;;12.00;;
12703;SDS011;6416;52.182;7.650;2023-09-12T00:17:44;13.05;;;11.75;;
12703;SDS011;6416;52.182;7.650;2023-09-12T00:20:10;13.93;;;12.50;;
12703;SDS011;6416;52.182;7.650;2023-09-12T00:22:35;13.35;;;12.20;;
12703;SDS011;6416;52.182;7.650;2023-09-12T00:25:01;13.88;;;12.52;;
12703;SDS011;6416;52.182;7.650;2023-09-12T00:27:26;13.88;;;12.35;;
12703;SDS011;6416;52.182;7.650;2023-09-12T00:29:52;14.02;;;12.82;;
12703;SDS011;6416;52.182;7.650;2023-09-12T00:32:17;13.75;;;12.35;;
12703;SDS011;6416;52.182;7.650;2023-09-12T00:34:42;14.15;;;12.32;;
12703;SDS011;6416;52.182;7.650;2023-09-12T00:37:08;14.52;;;12.88;;
12703;SDS011;6416;52.182;7.650;2023-09-12T00:39:33;13.63;;;12.38;;
12703;SDS011;6416;52.182;7.650;2023-09-12T00:41:59;13.00;;;11.70;;
12703;SDS011;6416;52.182;7.650;2023-09-12T00:44:24;13.95;;;12.65;;
12703;SDS011;6416;52.182;7.650;2023-09-12T00:46:50;13.40;;;12.25;;
12703;SDS011;6416;52.182;7.650;2023-09-12T00:49:17;14.45;;;13.05;;
12703;SDS011;6416;52.182;7.650;2023-09-12T00:51:44;14.80;;;13.30;;
12703;SDS011;6416;52.182;7.650;2023-09-12T00:54:10;14.43;;;13.05;;
12703;SDS011;6416;52.182;7.650;2023-09-12T00:56:36;14.68;;;13.13;;
12703;SDS011;6416;52.182;7.650;2023-09-12T00:59:02;15.40;;;13.90;;
12703;SDS011;6416;52.182;7.650;2023-09-12T01:01:28;14.00;;;12.60;;
12703;SDS011;6416;52.182;7.650;2023-09-12T01:03:56;14.35;;;12.95;;
12703;SDS011;6416;52.182;7.650;2023-09-12T01:06:22;13.13;;;11.90;;
12703;SDS011;6416;52.182;7.650;2023-09-12T01:08:49;13.98;;;12.57;;
12703;SDS011;6416;52.182;7.650;2023-09-12T01:11:14;14.82;;;13.43;;
12703;SDS011;6416;52.182;7.650;2023-09-12T01:13:42;14.90;;;13.40;;
12703;SDS011;6416;52.182;7.650;2023-09-12T01:16:08;14.20;;;12.93;;
12703;SDS011;6416;52.182;7.650;2023-09-12T01:18:33;15.10;;;13.65;;
12703;SDS011;6416;52.182;7.650;2023-09-12T01:21:04;14.85;;;13.38;;
12703;SDS011;6416;52.182;7.650;2023-09-12T01:26:37;14.68;;;13.25;;
12703;SDS011;6416;52.182;7.650;2023-09-12T01:29:29;14.48;;;13.10;;
12703;SDS011;6416;52.182;7.650;2023-09-12T01:31:55;16.63;;;15.10;;
12703;SDS011;6416;52.182;7.650;2023-09-12T01:34:21;14.95;;;13.60;;
12703;SDS011;6416;52.182;7.650;2023-09-12T01:36:47;15.80;;;14.25;;
12703;SDS011;6416;52.182;7.650;2023-09-12T01:39:12;10.90;;;9.90;;
12703;SDS011;6416;52.182;7.650;2023-09-12T01:41:39;8.65;;;7.82;;
12703;SDS011;6416;52.182;7.650;2023-09-12T01:44:08;6.38;;;5.78;;
12703;SDS011;6416;52.182;7.650;2023-09-12T01:46:35;5.38;;;4.88;;
12703;SDS011;6416;52.182;7.650;2023-09-12T01:49:02;5.85;;;5.25;;
12703;SDS011;6416;52.182;7.650;2023-09-12T01:51:29;7.72;;;5.10;;
12703;SDS011;6416;52.182;7.650;2023-09-12T01:53:55;4.85;;;4.40;;
12703;SDS011;6416;52.182;7.650;2023-09-12T01:56:21;5.70;;;4.50;;
12703;SDS011;6416;52.182;7.650;2023-09-12T01:58:48;5.18;;;4.68;;
12703;SDS011;6416;52.182;7.650;2023-09-12T02:01:14;4.57;;;4.18;;
12703;SDS011;6416;52.182;7.650;2023-09-12T02:03:39;5.13;;;4.60;;
12703;SDS011;6416;52.182;7.650;2023-09-12T02:06:05;5.28;;;4.65;;
12703;SDS011;6416;52.182;7.650;2023-09-12T02:08:30;5.07;;;4.57;;
12703;SDS011;6416;52.182;7.650;2023-09-12T02:10:55;4.63;;;4.28;;
12703;SDS011;6416;52.182;7.650;2023-09-12T02:13:21;5.63;;;5.07;;
12703;SDS011;6416;52.182;7.650;2023-09-12T02:15:46;4.72;;;4.32;;
12703;SDS011;6416;52.182;7.650;2023-09-12T02:18:12;6.50;;;4.30;;
12703;SDS011;6416;52.182;7.650;2023-09-12T02:20:41;4.60;;;4.20;;
12703;SDS011;6416;52.182;7.650;2023-09-12T02:23:06;4.78;;;4.38;;
12703;SDS011;6416;52.182;7.650;2023-09-12T02:25:32;4.82;;;4.43;;
12703;SDS011;6416;52.182;7.650;2023-09-12T02:27:57;4.68;;;4.28;;
12703;SDS011;6416;52.182;7.650;2023-09-12T02:30:23;5.07;;;4.55;;
12703;SDS011;6416;52.182;7.650;2023-09-12T02:32:48;4.88;;;4.43;;
12703;SDS011;6416;52.182;7.650;2023-09-12T02:35:14;4.25;;;3.85;;
12703;SDS011;6416;52.182;7.650;2023-09-12T02:37:39;4.40;;;4.03;;
12703;SDS011;6416;52.182;7.650;2023-09-12T02:40:05;4.80;;;4.40;;
12703;SDS011;6416;52.182;7.650;2023-09-12T02:42:31;4.28;;;3.92;;
12703;SDS011;6416;52.182;7.650;2023-09-12T02:44:57;4.72;;;4.32;;
12703;SDS011;6416;52.182;7.650;2023-09-12T02:47:23;4.22;;;3.78;;
12703;SDS011;6416;52.182;7.650;2023-09-12T02:49:48;4.50;;;4.10;;
12703;SDS011;6416;52.182;7.650;2023-09-12T02:52:13;4.40;;;4.00;;
12703;SDS011;6416;52.182;7.650;2023-09-12T02:54:39;4.32;;;3.90;;
12703;SDS011;6416;52.182;7.650;2023-09-12T02:57:04;4.50;;;4.15;;
12703;SDS011;6416;52.182;7.650;2023-09-12T02:59:30;4.25;;;3.95;;
12703;SDS011;6416;52.182;7.650;2023-09-12T03:01:55;5.38;;;4.57;;
12703;SDS011;6416;52.182;7.650;2023-09-12T03:04:21;5.25;;;4.82;;
12703;SDS011;6416;52.182;7.650;2023-09-12T03:06:47;5.05;;;4.40;;
12703;SDS011;6416;52.182;7.650;2023-09-12T03:09:13;6.38;;;4.85;;
12703;SDS011;6416;52.182;7.650;2023-09-12T03:11:38;5.20;;;4.70;;
12703;SDS011;6416;52.182;7.650;2023-09-12T03:14:04;5.30;;;4.80;;
12703;SDS011;6416;52.182;7.650;2023-09-12T03:16:29;5.35;;;4.50;;
12703;SDS011;6416;52.182;7.650;2023-09-12T03:18:55;5.88;;;4.80;;
12703;SDS011;6416;52.182;7.650;2023-09-12T03:21:20;6.38;;;5.43;;
12703;SDS011;6416;52.182;7.650;2023-09-12T03:23:46;5.28;;;4.78;;
12703;SDS011;6416;52.182;7.650;2023-09-12T03:26:11;6.25;;;5.75;;
12703;SDS011;6416;52.182;7.650;2023-09-12T03:28:37;6.18;;;5.68;;
12703;SDS011;6416;52.182;7.650;2023-09-12T03:31:06;6.82;;;6.22;;
12703;SDS011;6416;52.182;7.650;2023-09-12T03:33:33;7.90;;;6.10;;
12703;SDS011;6416;52.182;7.650;2023-09-12T03:35:58;7.03;;;6.43;;
12703;SDS011;6416;52.182;7.650;2023-09-12T03:38:24;7.40;;;6.53;;
12703;SDS011;6416;52.182;7.650;2023-09-12T03:40:49;6.90;;;6.30;;
12703;SDS011;6416;52.182;7.650;2023-09-12T03:43:15;6.55;;;6.05;;
12703;SDS011;6416;52.182;7.650;2023-09-12T03:45:40;7.28;;;6.68;;
12703;SDS011;6416;52.182;7.650;2023-09-12T03:48:06;7.18;;;6.47;;
12703;SDS011;6416;52.182;7.650;2023-09-12T03:50:31;6.53;;;5.97;;
12703;SDS011;6416;52.182;7.650;2023-09-12T03:52:57;6.60;;;6.05;;
12703;SDS011;6416;52.182;7.650;2023-09-12T03:55:22;7.28;;;5.90;;
12703;SDS011;6416;52.182;7.650;2023-09-12T03:57:48;7.07;;;6.47;;
12703;SDS011;6416;52.182;7.650;2023-09-12T04:00:13;7.07;;;6.45;;
12703;SDS011;6416;52.182;7.650;2023-09-12T04:02:39;7.00;;;6.40;;
12703;SDS011;6416;52.182;7.650;2023-09-12T04:05:05;7.28;;;6.57;;
12703;SDS011;6416;52.182;7.650;2023-09-12T04:07:31;8.13;;;6.18;;
12703;SDS011;6416;52.182;7.650;2023-09-12T04:09:56;6.57;;;6.07;;
12703;SDS011;6416;52.182;7.650;2023-09-12T04:12:23;6.80;;;6.18;;
12703;SDS011;6416;52.182;7.650;2023-09-12T04:14:52;6.45;;;5.93;;
12703;SDS011;6416;52.182;7.650;2023-09-12T04:17:17;6.65;;;5.65;;
12703;SDS011;6416;52.182;7.650;2023-09-12T04:19:43;7.57;;;5.43;;
12703;SDS011;6416;52.182;7.650;2023-09-12T04:22:08;6.47;;;5.97;;
12703;SDS011;6416;52.182;7.650;2023-09-12T04:24:34;6.30;;;5.70;;
12703;SDS011;6416;52.182;7.650;2023-09-12T04:26:59;7.18;;;6.07;;
12703;SDS011;6416;52.182;7.650;2023-09-12T04:29:25;5.75;;;5.20;;
12703;SDS011;6416;52.182;7.650;2023-09-12T04:31:50;5.68;;;5.28;;
12703;SDS011;6416;52.182;7.650;2023-09-12T04:34:16;5.85;;;5.35;;
12703;SDS011;6416;52.182;7.650;2023-09-12T04:36:41;6.65;;;5.63;;
12703;SDS011;6416;52.182;7.650;2023-09-12T04:39:07;6.72;;;6.10;;
12703;SDS011;6416;52.182;7.650;2023-09-12T04:41:32;6.68;;;6.05;;
12703;SDS011;6416;52.182;7.650;2023-09-12T04:43:58;6.43;;;5.82;;
12703;SDS011;6416;52.182;7.650;2023-09-12T04:46:23;7.63;;;5.68;;
12703;SDS011;6416;52.182;7.650;2023-09-12T04:48:49;7.03;;;6.32;;
12703;SDS011;6416;52.182;7.650;2023-09-12T04:51:14;6.05;;;5.13;;
12703;SDS011;6416;52.182;7.650;2023-09-12T04:53:39;5.65;;;5.15;;
12703;SDS011;6416;52.182;7.650;2023-09-12T04:56:05;5.78;;;5.28;;
12703;SDS011;6416;52.182;7.650;2023-09-12T04:58:30;5.50;;;5.00;;
12703;SDS011;6416;52.182;7.650;2023-09-12T05:00:56;5.30;;;4.72;;
12703;SDS011;6416;52.182;7.650;2023-09-12T05:03:22;6.20;;;5.55;;
12703;SDS011;6416;52.182;7.650;2023-09-12T05:05:48;6.32;;;5.60;;
12703;SDS011;6416;52.182;7.650;2023-09-12T05:08:14;5.78;;;4.93;;
12703;SDS011;6416;52.182;7.650;2023-09-12T05:10:39;6.70;;;5.03;;
12703;SDS011;6416;52.182;7.650;2023-09-12T05:13:05;5.80;;;5.30;;
12703;SDS011;6416;52.182;7.650;2023-09-12T05:15:30;5.50;;;5.07;;
12703;SDS011;6416;52.182;7.650;2023-09-12T05:17:56;4.95;;;4.55;;
12703;SDS011;6416;52.182;7.650;2023-09-12T05:20:22;4.97;;;4.47;;
12703;SDS011;6416;52.182;7.650;2023-09-12T05:22:47;4.97;;;4.53;;
12703;SDS011;6416;52.182;7.650;2023-09-12T05:25:13;6.18;;;4.68;;
12703;SDS011;6416;52.182;7.650;2023-09-12T05:27:38;5.38;;;4.88;;
12703;SDS011;6416;52.182;7.650;2023-09-12T05:30:04;5.63;;;4.57;;
12703;SDS011;6416;52.182;7.650;2023-09-12T05:32:30;7.22;;;4.75;;
12703;SDS011;6416;52.182;7.650;2023-09-12T05:34:55;4.70;;;4.30;;
12703;SDS011;6416;52.182;7.650;2023-09-12T05:37:21;6.95;;;4.82;;
12703;SDS011;6416;52.182;7.650;2023-09-12T05:39:46;5.45;;;5.00;;
12703;SDS011;6416;52.182;7.650;2023-09-12T05:42:12;4.95;;;4.45;;
12703;SDS011;6416;52.182;7.650;2023-09-12T05:44:37;4.70;;;4.32;;
12703;SDS011;6416;52.182;7.650;2023-09-12T05:47:03;5.10;;;4.70;;
12703;SDS011;6416;52.182;7.650;2023-09-12T05:49:28;5.47;;;4.32;;
12703;SDS011;6416;52.182;7.650;2023-09-12T05:51:54;4.85;;;4.45;;
12703;SDS011;6416;52.182;7.650;2023-09-12T05:54:19;5.70;;;5.07;;
12703;SDS011;6416;52.182;7.650;2023-09-12T05:56:45;6.57;;;4.78;;
12703;SDS011;6416;52.182;7.650;2023-09-12T05:59:10;4.75;;;4.35;;
12703;SDS011;6416;52.182;7.650;2023-09-12T06:01:36;5.63;;;5.13;;
12703;SDS011;6416;52.182;7.650;2023-09-12T06:04:01;5.57;;;4.90;;
12703;SDS011;6416;52.182;7.650;2023-09-12T06:06:27;5.05;;;4.55;;
12703;SDS011;6416;52.182;7.650;2023-09-12T06:08:52;5.70;;;5.20;;
12703;SDS011;6416;52.182;7.650;2023-09-12T06:11:18;5.05;;;4.55;;
12703;SDS011;6416;52.182;7.650;2023-09-12T06:13:43;4.88;;;4.38;;
12703;SDS011;6416;52.182;7.650;2023-09-12T06:16:09;5.35;;;4.85;;
12703;SDS011;6416;52.182;7.650;2023-09-12T06:18:34;5.40;;;4.47;;
12703;SDS011;6416;52.182;7.650;2023-09-12T06:21:00;5.82;;;4.50;;
12703;SDS011;6416;52.182;7.650;2023-09-12T06:23:26;5.25;;;4.75;;
12703;SDS011;6416;52.182;7.650;2023-09-12T06:25:51;6.72;;;5.05;;
12703;SDS011;6416;52.182;7.650;2023-09-12T06:28:26;5.82;;;5.10;;
12703;SDS011;6416;52.182;7.650;2023-09-12T06:30:55;5.35;;;4.85;;
12703;SDS011;6416;52.182;7.650;2023-09-12T06:33:21;6.10;;;5.40;;
12703;SDS011;6416;52.182;7.650;2023-09-12T06:35:50;5.72;;;4.95;;
12703;SDS011;6416;52.182;7.650;2023-09-12T06:38:16;6.72;;;5.18;;
12703;SDS011;6416;52.182;7.650;2023-09-12T06:40:44;5.40;;;4.90;;
12703;SDS011;6416;52.182;7.650;2023-09-12T06:43:10;5.35;;;4.85;;
12703;SDS011;6416;52.182;7.650;2023-09-12T06:45:35;5.78;;;5.15;;
12703;SDS011;6416;52.182;7.650;2023-09-12T06:48:01;5.32;;;4.82;;
12703;SDS011;6416;52.182;7.650;2023-09-12T06:50:26;7.05;;;4.90;;
12703;SDS011;6416;52.182;7.650;2023-09-12T06:52:51;5.70;;;5.20;;
12703;SDS011;6416;52.182;7.650;2023-09-12T06:55:17;5.82;;;5.20;;
12703;SDS011;6416;52.182;7.650;2023-09-12T06:57:42;10.18;;;5.07;;
12703;SDS011;6416;52.182;7.650;2023-09-12T07:00:08;6.25;;;5.65;;
12703;SDS011;6416;52.182;7.650;2023-09-12T07:02:34;6.28;;;5.68;;
12703;SDS011;6416;52.182;7.650;2023-09-12T07:04:59;5.85;;;5.35;;
12703;SDS011;6416;52.182;7.650;2023-09-12T07:07:25;5.38;;;4.97;;
12703;SDS011;6416;52.182;7.650;2023-09-12T07:09:50;6.05;;;5.55;;
12703;SDS011;6416;52.182;7.650;2023-09-12T07:12:16;5.63;;;5.13;;
12703;SDS011;6416;52.182;7.650;2023-09-12T07:14:41;5.53;;;4.90;;
12703;SDS011;6416;52.182;7.650;2023-09-12T07:17:07;5.25;;;4.75;;
12703;SDS011;6416;52.182;7.650;2023-09-12T07:19:32;5.72;;;5.20;;
12703;SDS011;6416;52.182;7.650;2023-09-12T07:21:58;5.57;;;5.05;;
12703;SDS011;6416;52.182;7.650;2023-09-12T07:24:26;8.00;;;5.85;;
12703;SDS011;6416;52.182;7.650;2023-09-12T07:26:52;6.22;;;5.35;;
12703;SDS011;6416;52.182;7.650;2023-09-12T07:29:18;6.18;;;5.57;;
12703;SDS011;6416;52.182;7.650;2023-09-12T07:31:43;5.85;;;5.35;;
12703;SDS011;6416;52.182;7.650;2023-09-12T07:34:09;6.18;;;5.57;;
12703;SDS011;6416;52.182;7.650;2023-09-12T07:36:34;6.18;;;5.57;;
12703;SDS011;6416;52.182;7.650;2023-09-12T07:39:00;7.32;;;5.63;;
12703;SDS011;6416;52.182;7.650;2023-09-12T07:41:25;7.10;;;6.30;;
12703;SDS011;6416;52.182;7.650;2023-09-12T07:43:51;6.88;;;6.00;;
12703;SDS011;6416;52.182;7.650;2023-09-12T07:46:16;6.28;;;5.68;;
12703;SDS011;6416;52.182;7.650;2023-09-12T07:48:42;6.03;;;5.50;;
12703;SDS011;6416;52.182;7.650;2023-09-12T07:51:11;8.07;;;6.30;;
12703;SDS011;6416;52.182;7.650;2023-09-12T07:53:40;7.60;;;6.90;;
12703;SDS011;6416;52.182;7.650;2023-09-12T07:56:06;6.97;;;6.38;;
12703;SDS011;6416;52.182;7.650;2023-09-12T07:58:33;7.53;;;6.88;;
12703;SDS011;6416;52.182;7.650;2023-09-12T08:00:59;7.43;;;6.72;;
12703;SDS011;6416;52.182;7.650;2023-09-12T08:03:29;8.52;;;7.38;;
12703;SDS011;6416;52.182;7.650;2023-09-12T08:05:55;7.72;;;6.93;;
12703;SDS011;6416;52.182;7.650;2023-09-12T08:08:21;7.07;;;6.47;;
12703;SDS011;6416;52.182;7.650;2023-09-12T08:10:46;6.85;;;6.35;;
12703;SDS011;6416;52.182;7.650;2023-09-12T08:13:12;7.80;;;6.88;;
12703;SDS011;6416;52.182;7.650;2023-09-12T08:15:37;6.65;;;6.05;;
12703;SDS011;6416;52.182;7.650;2023-09-12T08:18:03;7.35;;;6.65;;
12703;SDS011;6416;52.182;7.650;2023-09-12T08:20:28;6.90;;;6.32;;
12703;SDS011;6416;52.182;7.650;2023-09-12T08:22:54;6.85;;;6.22;;
12703;SDS011;6416;52.182;7.650;2023-09-12T08:25:19;7.22;;;6.63;;
12703;SDS011;6416;52.182;7.650;2023-09-12T08:27:45;6.68;;;5.97;;
12703;SDS011;6416;52.182;7.650;2023-09-12T08:30:10;6.38;;;5.78;;
12703;SDS011;6416;52.182;7.650;2023-09-12T08:32:37;6.65;;;6.05;;
12703;SDS011;6416;52.182;7.650;2023-09-12T08:35:03;7.82;;;6.40;;
12703;SDS011;6416;52.182;7.650;2023-09-12T08:37:29;7.60;;;6.47;;
12703;SDS011;6416;52.182;7.650;2023-09-12T08:39:54;7.15;;;6.50;;
12703;SDS011;6416;52.182;7.650;2023-09-12T08:42:20;7.30;;;6.60;;
12703;SDS011;6416;52.182;7.650;2023-09-12T08:44:45;7.28;;;6.63;;
12703;SDS011;6416;52.182;7.650;2023-09-12T08:47:11;7.25;;;6.55;;
12703;SDS011;6416;52.182;7.650;2023-09-12T08:49:38;7.72;;;7.03;;
12703;SDS011;6416;52.182;7.650;2023-09-12T08:52:04;7.70;;;7.00;;
12703;SDS011;6416;52.182;7.650;2023-09-12T08:54:31;7.65;;;6.95;;
12703;SDS011;6416;52.182;7.650;2023-09-12T08:56:57;7.90;;;6.75;;
12703;SDS011;6416;52.182;7.650;2023-09-12T08:59:23;7.60;;;6.90;;
12703;SDS011;6416;52.182;7.650;2023-09-12T09:01:49;8.10;;;7.40;;
12703;SDS011;6416;52.182;7.650;2023-09-12T09:04:15;7.80;;;7.00;;
12703;SDS011;6416;52.182;7.650;2023-09-12T09:06:41;6.70;;;6.10;;
12703;SDS011;6416;52.182;7.650;2023-09-12T09:09:06;9.27;;;6.65;;
12703;SDS011;6416;52.182;7.650;2023-09-12T09:11:33;7.22;;;6.63;;
12703;SDS011;6416;52.182;7.650;2023-09-12T09:13:59;7.05;;;6.43;;
12703;SDS011;6416;52.182;7.650;2023-09-12T09:16:24;6.97;;;6.35;;
12703;SDS011;6416;52.182;7.650;2023-09-12T09:18:53;7.57;;;6.88;;
12703;SDS011;6416;52.182;7.650;2023-09-12T09:21:30;7.85;;;7.22;;
12703;SDS011;6416;52.182;7.650;2023-09-12T09:24:02;7.65;;;6.95;;
12703;SDS011;6416;52.182;7.650;2023-09-12T09:26:41;8.02;;;7.32;;
12703;SDS011;6416;52.182;7.650;2023-09-12T09:29:13;8.07;;;7.38;;
12703;SDS011;6416;52.182;7.650;2023-09-12T09:31:40;9.07;;;8.15;;
12703;SDS011;6416;52.182;7.650;2023-09-12T09:34:10;7.82;;;7.03;;
12703;SDS011;6416;52.182;7.650;2023-09-12T09:39:22;8.77;;;7.97;;
12703;SDS011;6416;52.182;7.650;2023-09-12T09:41:50;11.40;;;8.20;;
12703;SDS011;6416;52.182;7.650;2023-09-12T09:44:17;9.00;;;8.27;;
12703;SDS011;6416;52.182;7.650;2023-09-12T09:46:43;9.13;;;8.10;;
12703;SDS011;6416;52.182;7.650;2023-09-12T09:49:16;9.00;;;8.25;;
12703;SDS011;6416;52.182;7.650;2023-09-12T09:51:45;9.25;;;8.25;;
12703;SDS011;6416;52.182;7.650;2023-09-12T09:54:13;9.00;;;8.10;;
12703;SDS011;6416;52.182;7.650;2023-09-12T09:56:46;8.85;;;8.15;;
12703;SDS011;6416;52.182;7.650;2023-09-12T09:59:13;9.18;;;8.38;;
12703;SDS011;6416;52.182;7.650;2023-09-12T10:01:40;9.60;;;8.60;;
12703;SDS011;6416;52.182;7.650;2023-09-12T10:04:07;9.40;;;8.60;;
12703;SDS011;6416;52.182;7.650;2023-09-12T10:06:35;8.80;;;8.10;;
12703;SDS011;6416;52.182;7.650;2023-09-12T10:09:01;8.77;;;8.07;;
12703;SDS011;6416;52.182;7.650;2023-09-12T10:11:33;9.45;;;8.65;;
12703;SDS011;6416;52.182;7.650;2023-09-12T10:14:00;9.05;;;8.25;;
12703;SDS011;6416;52.182;7.650;2023-09-12T10:16:35;8.43;;;7.72;;
12703;SDS011;6416;52.182;7.650;2023-09-12T10:19:16;9.40;;;8.55;;
12703;SDS011;6416;52.182;7.650;2023-09-12T10:21:49;9.07;;;8.38;;
12703;SDS011;6416;52.182;7.650;2023-09-12T10:24:19;8.20;;;7.50;;
12703;SDS011;6416;52.182;7.650;2023-09-12T10:26:45;8.82;;;6.82;;
12703;SDS011;6416;52.182;7.650;2023-09-12T10:29:13;7.32;;;6.63;;
12703;SDS011;6416;52.182;7.650;2023-09-12T10:31:39;8.00;;;7.03;;
12703;SDS011;6416;52.182;7.650;2023-09-12T10:34:05;6.75;;;6.15;;
12703;SDS011;6416;52.182;7.650;2023-09-12T10:36:31;6.80;;;6.28;;
12703;SDS011;6416;52.182;7.650;2023-09-12T10:38:57;7.28;;;6.68;;
12703;SDS011;6416;52.182;7.650;2023-09-12T10:41:25;8.05;;;5.97;;
12703;SDS011;6416;52.182;7.650;2023-09-12T10:43:51;6.53;;;6.03;;
12703;SDS011;6416;52.182;7.650;2023-09-12T10:46:18;6.15;;;5.57;;
12703;SDS011;6416;52.182;7.650;2023-09-12T10:48:44;6.35;;;5.85;;
12703;SDS011;6416;52.182;7.650;2023-09-12T10:51:10;6.20;;;5.65;;
12703;SDS011;6416;52.182;7.650;2023-09-12T10:53:36;5.57;;;5.13;;
12703;SDS011;6416;52.182;7.650;2023-09-12T11:01:28;4.35;;;4.05;;
12703;SDS011;6416;52.182;7.650;2023-09-12T11:03:54;5.20;;;4.80;;
12703;SDS011;6416;52.182;7.650;2023-09-12T11:06:20;4.10;;;3.80;;
12703;SDS011;6416;52.182;7.650;2023-09-12T11:09:28;4.93;;;4.53;;
12703;SDS011;6416;52.182;7.650;2023-09-12T11:11:49;4.03;;;3.72;;
12703;SDS011;6416;52.182;7.650;2023-09-12T11:14:27;4.57;;;4.18;;
12703;SDS011;6416;52.182;7.650;2023-09-12T11:19:46;3.80;;;3.50;;
12703;SDS011;6416;52.182;7.650;2023-09-12T11:22:23;3.97;;;3.58;;
12703;SDS011;6416;52.182;7.650;2023-09-12T11:24:53;4.30;;;3.25;;
12703;SDS011;6416;52.182;7.650;2023-09-12T11:27:19;4.78;;;4.38;;
12703;SDS011;6416;52.182;7.650;2023-09-12T11:29:45;4.53;;;4.13;;
12703;SDS011;6416;52.182;7.650;2023-09-12T11:32:10;3.67;;;3.38;;
12703;SDS011;6416;52.182;7.650;2023-09-12T11:34:55;4.30;;;3.90;;
12703;SDS011;6416;52.182;7.650;2023-09-12T11:37:24;3.72;;;3.42;;
12703;SDS011;6416;52.182;7.650;2023-09-12T11:39:53;3.55;;;3.25;;
12703;SDS011;6416;52.182;7.650;2023-09-12T11:42:19;3.75;;;3.45;;
12703;SDS011;6416;52.182;7.650;2023-09-12T11:44:45;3.20;;;2.90;;
12703;SDS011;6416;52.182;7.650;2023-09-12T11:47:10;3.22;;;3.03;;
12703;SDS011;6416;52.182;7.650;2023-09-12T11:49:37;2.53;;;2.30;;
12703;SDS011;6416;52.182;7.650;2023-09-12T11:52:07;2.97;;;2.70;;
12703;SDS011;6416;52.182;7.650;2023-09-12T11:54:34;3.50;;;2.83;;
12703;SDS011;6416;52.182;7.650;2023-09-12T11:56:59;3.92;;;3.63;;
12703;SDS011;6416;52.182;7.650;2023-09-12T11:59:27;3.10;;;2.80;;
12703;SDS011;6416;52.182;7.650;2023-09-12T12:01:54;4.57;;;2.90;;
12703;SDS011;6416;52.182;7.650;2023-09-12T12:04:20;3.40;;;3.10;;
12703;SDS011;6416;52.182;7.650;2023-09-12T12:06:46;3.38;;;2.97;;
12703;SDS011;6416;52.182;7.650;2023-09-12T12:09:12;3.83;;;3.15;;
12703;SDS011;6416;52.182;7.650;2023-09-12T12:11:39;2.85;;;2.65;;
12703;SDS011;6416;52.182;7.650;2023-09-12T12:14:14;2.55;;;2.30;;
12703;SDS011;6416;52.182;7.650;2023-09-12T12:16:41;3.17;;;2.88;;
12703;SDS011;6416;52.182;7.650;2023-09-12T12:19:07;4.25;;;2.80;;
12703;SDS011;6416;52.182;7.650;2023-09-12T12:21:34;2.88;;;2.67;;
12703;SDS011;6416;52.182;7.650;2023-09-12T12:24:00;2.85;;;2.60;;
12703;SDS011;6416;52.182;7.650;2023-09-12T12:26:26;2.75;;;2.40;;
12703;SDS011;6416;52.182;7.650;2023-09-12T12:28:52;2.65;;;2.45;;
12703;SDS011;6416;52.182;7.650;2023-09-12T12:31:18;2.42;;;2.22;;
12703;SDS011;6416;52.182;7.650;2023-09-12T12:33:47;2.55;;;2.35;;
12703;SDS011;6416;52.182;7.650;2023-09-12T12:36:13;2.58;;;2.38;;
12703;SDS011;6416;52.182;7.650;2023-09-12T12:38:39;3.10;;;2.55;;
12703;SDS011;6416;52.182;7.650;2023-09-12T12:41:04;2.55;;;2.35;;
12703;SDS011;6416;52.182;7.650;2023-09-12T12:43:30;2.60;;;2.40;;
12703;SDS011;6416;52.182;7.650;2023-09-12T12:45:57;2.85;;;2.55;;
12703;SDS011;6416;52.182;7.650;2023-09-12T12:48:33;3.22;;;2.50;;
12703;SDS011;6416;52.182;7.650;2023-09-12T12:50:59;2.53;;;2.33;;
12703;SDS011;6416;52.182;7.650;2023-09-12T12:53:38;2.65;;;2.45;;
12703;SDS011;6416;52.182;7.650;2023-09-12T12:56:08;2.60;;;2.40;;
12703;SDS011;6416;52.182;7.650;2023-09-12T12:58:33;3.60;;;2.33;;
12703;SDS011;6416;52.182;7.650;2023-09-12T13:00:59;2.50;;;2.20;;
12703;SDS011;6416;52.182;7.650;2023-09-12T13:03:24;2.65;;;2.45;;
12703;SDS011;6416;52.182;7.650;2023-09-12T13:05:50;2.97;;;2.60;;
12703;SDS011;6416;52.182;7.650;2023-09-12T13:08:15;3.92;;;2.33;;
12703;SDS011;6416;52.182;7.650;2023-09-12T13:10:40;2.25;;;2.15;;
12703;SDS011;6416;52.182;7.650;2023-09-12T13:13:06;2.58;;;2.38;;
12703;SDS011;6416;52.182;7.650;2023-09-12T13:15:32;2.65;;;2.22;;
12703;SDS011;6416;52.182;7.650;2023-09-12T13:18:00;2.33;;;2.13;;
12703;SDS011;6416;52.182;7.650;2023-09-12T13:20:26;2.38;;;1.85;;
12703;SDS011;6416;52.182;7.650;2023-09-12T13:22:51;3.22;;;2.40;;
12703;SDS011;6416;52.182;7.650;2023-09-12T13:25:17;2.20;;;2.10;;
12703;SDS011;6416;52.182;7.650;2023-09-12T13:27:42;2.10;;;1.90;;
12703;SDS011;6416;52.182;7.650;2023-09-12T13:30:08;2.15;;;1.95;;
12703;SDS011;6416;52.182;7.650;2023-09-12T13:32:33;2.17;;;1.88;;
12703;SDS011;6416;52.182;7.650;2023-09-12T13:34:59;2.30;;;2.10;;
12703;SDS011;6416;52.182;7.650;2023-09-12T13:37:24;2.30;;;2.10;;
12703;SDS011;6416;52.182;7.650;2023-09-12T13:39:50;2.20;;;1.90;;
12703;SDS011;6416;52.182;7.650;2023-09-12T13:42:15;3.50;;;1.90;;
12703;SDS011;6416;52.182;7.650;2023-09-12T13:44:41;2.65;;;1.98;;
12703;SDS011;6416;52.182;7.650;2023-09-12T13:47:07;3.28;;;2.40;;
12703;SDS011;6416;52.182;7.650;2023-09-12T13:49:32;2.50;;;2.30;;
12703;SDS011;6416;52.182;7.650;2023-09-12T13:51:58;2.17;;;2.03;;
12703;SDS011;6416;52.182;7.650;2023-09-12T13:54:23;2.42;;;2.22;;
12703;SDS011;6416;52.182;7.650;2023-09-12T13:56:48;4.10;;;2.03;;
12703;SDS011;6416;52.182;7.650;2023-09-12T13:59:14;2.80;;;2.38;;
12703;SDS011;6416;52.182;7.650;2023-09-12T14:01:39;2.05;;;1.90;;
12703;SDS011;6416;52.182;7.650;2023-09-12T14:04:05;2.63;;;2.42;;
12703;SDS011;6416;52.182;7.650;2023-09-12T14:06:32;2.30;;;1.98;;
12703;SDS011;6416;52.182;7.650;2023-09-12T14:08:58;2.35;;;2.15;;
12703;SDS011;6416;52.182;7.650;2023-09-12T14:11:23;2.60;;;2.17;;
12703;SDS011;6416;52.182;7.650;2023-09-12T14:13:49;2.55;;;2.35;;
12703;SDS011;6416;52.182;7.650;2023-09-12T14:16:14;2.60;;;2.40;;
12703;SDS011;6416;52.182;7.650;2023-09-12T14:18:40;2.85;;;2.42;;
12703;SDS011;6416;52.182;7.650;2023-09-12T14:21:06;3.08;;;2.30;;
12703;SDS011;6416;52.182;7.650;2023-09-12T14:23:31;2.80;;;2.60;;
12703;SDS011;6416;52.182;7.650;2023-09-12T14:25:56;2.45;;;2.25;;
12703;SDS011;6416;52.182;7.650;2023-09-12T14:28:22;2.72;;;2.53;;
12703;SDS011;6416;52.182;7.650;2023-09-12T14:30:48;3.65;;;2.83;;
12703;SDS011;6416;52.182;7.650;2023-09-12T14:33:13;2.67;;;2.30;;
12703;SDS011;6416;52.182;7.650;2023-09-12T14:35:39;2.85;;;2.65;;
12703;SDS011;6416;52.182;7.650;2023-09-12T14:38:05;2.78;;;2.53;;
12703;SDS011;6416;52.182;7.650;2023-09-12T14:40:31;2.70;;;2.50;;
12703;SDS011;6416;52.182;7.650;2023-09-12T14:42:56;3.13;;;2.50;;
12703;SDS011;6416;52.182;7.650;2023-09-12T14:45:21;3.25;;;2.72;;
12703;SDS011;6416;52.182;7.650;2023-09-12T14:47:47;3.20;;;2.90;;
12703;SDS011;6416;52.182;7.650;2023-09-12T14:50:12;2.75;;;2.50;;
12703;SDS011;6416;52.182;7.650;2023-09-12T14:52:38;3.28;;;2.70;;
12703;SDS011;6416;52.182;7.650;2023-09-12T14:55:04;3.00;;;2.80;;
12703;SDS011;6416;52.182;7.650;2023-09-12T14:57:31;2.80;;;2.60;;
12703;SDS011;6416;52.182;7.650;2023-09-12T14:59:57;2.47;;;2.28;;
12703;SDS011;6416;52.182;7.650;2023-09-12T15:02:23;2.80;;;2.60;;
12703;SDS011;6416;52.182;7.650;2023-09-12T15:04:50;2.30;;;2.15;;
12703;SDS011;6416;52.182;7.650;2023-09-12T15:07:15;2.55;;;2.35;;